createdAt,value
2022-09-04T00:01:38.769Z,57.10
2022-09-04T00:04:32.012Z,57.20
2022-09-04T00:06:42.810Z,57.14
2022-09-04T00:08:47.400Z,56.94
2022-09-04T00:11:15.268Z,56.99
2022-09-04T00:13:29.030Z,56.96
2022-09-04T00:15:36.521Z,57.07
2022-09-04T00:18:03.002Z,57.13
2022-09-04T00:20:14.233Z,57.17
2022-09-04T00:22:33.759Z,57.32
2022-09-04T00:24:40.088Z,57.35
2022-09-04T00:26:41.957Z,57.60
2022-09-04T00:29:01.267Z,57.74
2022-09-04T00:31:29.157Z,57.99
2022-09-04T00:33:49.890Z,58.09
2022-09-04T00:35:57.905Z,58.19
2022-09-04T00:38:21.501Z,58.39
2022-09-04T00:40:37.747Z,58.41
2022-09-04T00:43:10.758Z,58.43
2022-09-04T00:45:42.044Z,58.69
2022-09-04T00:48:31.989Z,58.63
2022-09-04T00:51:15.188Z,58.78
2022-09-04T00:53:36.332Z,58.97
2022-09-04T00:55:54.165Z,59.02
2022-09-04T00:58:33.354Z,58.90
2022-09-04T01:00:36.561Z,59.43
2022-09-04T01:02:47.181Z,59.65
2022-09-04T01:05:19.835Z,59.50
2022-09-04T01:07:48.327Z,59.45
2022-09-04T01:10:31.108Z,59.83
2022-09-04T01:12:40.579Z,60.21
2022-09-04T01:14:48.645Z,60.00
2022-09-04T01:17:06.331Z,60.45
2022-09-04T01:19:41.640Z,60.30
2022-09-04T01:21:46.171Z,60.42
2022-09-04T01:24:15.333Z,60.46
2022-09-04T01:26:35.559Z,60.55
2022-09-04T01:28:53.333Z,60.65
2022-09-04T01:31:08.202Z,60.66
2022-09-04T01:33:27.760Z,60.99
2022-09-04T01:35:44.589Z,61.01
2022-09-04T01:37:58.620Z,61.08
2022-09-04T01:40:23.828Z,61.16
2022-09-04T01:42:56.375Z,61.14
2022-09-04T01:44:58.051Z,61.11
2022-09-04T01:47:40.225Z,61.00
2022-09-04T01:50:01.943Z,60.96
2022-09-04T01:52:21.828Z,61.13
2022-09-04T01:54:50.376Z,60.82
2022-09-04T01:57:03.246Z,61.02
2022-09-04T01:59:27.203Z,60.94
2022-09-04T02:01:48.670Z,60.91
2022-09-04T02:03:54.465Z,60.89
2022-09-04T02:06:37.238Z,61.03
2022-09-04T02:09:02.948Z,60.88
2022-09-04T02:11:15.288Z,60.71
2022-09-04T02:13:29.498Z,61.36
2022-09-04T02:16:10.601Z,61.06
2022-09-04T02:19:01.247Z,60.97
2022-09-04T02:21:13.636Z,60.96
2022-09-04T02:23:26.725Z,61.11
2022-09-04T02:25:56.388Z,61.43
2022-09-04T02:28:45.820Z,61.32
2022-09-04T02:31:02.687Z,61.51
2022-09-04T02:33:19.370Z,61.88
2022-09-04T02:35:37.020Z,62.28
2022-09-04T02:38:27.878Z,62.64
2022-09-04T02:40:54.073Z,62.71
2022-09-04T02:43:10.931Z,62.69
2022-09-04T02:45:45.921Z,62.98
2022-09-04T02:47:55.754Z,62.85
2022-09-04T02:50:30.776Z,63.53
2022-09-04T02:52:56.655Z,63.58
2022-09-04T02:55:14.461Z,63.97
2022-09-04T02:57:40.777Z,63.86
2022-09-04T03:00:26.041Z,64.50
2022-09-04T03:02:33.792Z,65.33
2022-09-04T03:04:59.159Z,65.42
2022-09-04T03:07:10.020Z,65.69
2022-09-04T03:09:47.101Z,66.01
2022-09-04T03:12:00.866Z,66.39
2022-09-04T03:14:05.340Z,66.63
2022-09-04T03:16:15.808Z,66.76
2022-09-04T03:18:54.846Z,66.87
2022-09-04T03:21:12.479Z,66.75
2022-09-04T03:23:32.859Z,67.00
2022-09-04T03:26:11.291Z,67.19
2022-09-04T03:28:24.936Z,67.36
2022-09-04T03:30:28.846Z,67.56
2022-09-04T03:32:33.500Z,67.98
2022-09-04T03:35:17.621Z,68.11
2022-09-04T03:37:46.968Z,68.34
2022-09-04T03:40:20.598Z,68.32
2022-09-04T03:42:25.354Z,68.70
2022-09-04T03:44:52.372Z,68.65
2022-09-04T03:46:54.190Z,68.67
2022-09-04T03:49:09.543Z,68.69
2022-09-04T03:51:25.684Z,68.96
2022-09-04T03:53:49.984Z,69.27
2022-09-04T03:56:26.600Z,69.32
2022-09-04T03:58:59.857Z,69.63
2022-09-04T04:01:25.368Z,69.63
2022-09-04T04:03:40.179Z,69.88
2022-09-04T04:06:16.028Z,69.71
2022-09-04T04:08:56.753Z,69.90
2022-09-04T04:11:26.352Z,70.21
2022-09-04T04:14:05.244Z,70.26
2022-09-04T04:16:24.475Z,70.24
2022-09-04T04:18:39.231Z,70.36
2022-09-04T04:21:13.138Z,70.70
2022-09-04T04:23:24.885Z,70.90
2022-09-04T04:25:48.870Z,70.67
2022-09-04T04:28:36.013Z,70.51
2022-09-04T04:30:52.664Z,70.69
2022-09-04T04:33:20.961Z,70.80
2022-09-04T04:36:17.759Z,70.67
2022-09-04T04:38:30.726Z,70.89
2022-09-04T04:40:45.380Z,71.04
2022-09-04T04:43:12.967Z,71.41
2022-09-04T04:45:55.520Z,71.54
2022-09-04T04:48:31.875Z,71.56
2022-09-04T04:51:05.371Z,71.49
2022-09-04T04:53:25.004Z,71.83
2022-09-04T04:55:35.173Z,71.47
2022-09-04T04:57:54.366Z,71.76
2022-09-04T05:00:08.240Z,71.94
2022-09-04T05:02:31.194Z,72.04
2022-09-04T05:04:58.255Z,71.87
2022-09-04T05:07:34.740Z,71.85
2022-09-04T05:09:51.497Z,71.91
2022-09-04T05:12:18.090Z,72.01
2022-09-04T05:15:02.053Z,72.06
2022-09-04T05:17:18.367Z,72.28
2022-09-04T05:19:45.190Z,72.48
2022-09-04T05:22:04.350Z,72.48
2022-09-04T05:24:34.274Z,72.67
2022-09-04T05:26:35.936Z,72.58
2022-09-04T05:28:50.119Z,72.70
2022-09-04T05:31:14.122Z,72.92
2022-09-04T05:33:29.221Z,72.89
2022-09-04T05:35:38.269Z,72.69
2022-09-04T05:37:45.236Z,72.60
2022-09-04T05:40:23.557Z,72.25
2022-09-04T05:42:34.040Z,72.34
2022-09-04T05:44:59.982Z,72.24
2022-09-04T05:47:11.689Z,72.67
2022-09-04T05:49:45.903Z,72.58
2022-09-04T05:52:03.840Z,72.97
2022-09-04T05:54:44.749Z,72.87
2022-09-04T05:57:05.116Z,72.32
2022-09-04T05:59:26.256Z,72.39
2022-09-04T06:01:55.748Z,72.38
2022-09-04T06:04:06.675Z,72.26
2022-09-04T06:06:20.522Z,72.02
2022-09-04T06:08:54.651Z,71.97
2022-09-04T06:11:06.775Z,71.65
2022-09-04T06:13:23.975Z,71.50
2022-09-04T06:15:53.364Z,71.69
2022-09-04T06:18:21.106Z,71.30
2022-09-04T06:20:43.152Z,71.28
2022-09-04T06:22:55.006Z,70.86
2022-09-04T06:25:25.670Z,70.63
2022-09-04T06:27:27.347Z,70.28
2022-09-04T06:29:35.646Z,70.13
2022-09-04T06:31:43.390Z,69.92
2022-09-04T06:34:20.272Z,69.96
2022-09-04T06:36:35.960Z,69.67
2022-09-04T06:39:16.065Z,69.90
2022-09-04T06:41:36.236Z,69.79
2022-09-04T06:44:02.339Z,69.34
2022-09-04T06:46:27.469Z,68.95
2022-09-04T06:49:06.023Z,69.15
2022-09-04T06:51:27.177Z,68.85
2022-09-04T06:53:31.920Z,69.16
2022-09-04T06:55:49.609Z,68.67
2022-09-04T06:58:19.846Z,68.91
2022-09-04T07:00:21.969Z,68.60
2022-09-04T07:02:54.970Z,68.47
2022-09-04T07:05:06.238Z,68.28
2022-09-04T07:07:26.158Z,68.46
2022-09-04T07:09:42.025Z,68.16
2022-09-04T07:11:57.495Z,68.22
2022-09-04T07:14:17.009Z,67.90
2022-09-04T07:16:36.426Z,67.55
2022-09-04T07:18:56.378Z,67.59
2022-09-04T07:21:19.681Z,67.37
2022-09-04T07:23:49.167Z,67.17
2022-09-04T07:26:35.313Z,67.07
2022-09-04T07:29:07.241Z,66.42
2022-09-04T07:31:38.877Z,66.30
2022-09-04T07:34:08.256Z,66.14
2022-09-04T07:36:37.315Z,65.80
2022-09-04T07:38:52.461Z,65.46
2022-09-04T07:41:02.424Z,64.98
2022-09-04T07:43:35.046Z,64.99
2022-09-04T07:45:48.781Z,64.86
2022-09-04T07:48:41.320Z,64.51
2022-09-04T07:51:21.598Z,64.14
2022-09-04T07:53:31.951Z,64.12
2022-09-04T07:55:40.590Z,63.79
2022-09-04T07:58:02.500Z,63.74
2022-09-04T08:00:05.067Z,63.61
2022-09-04T08:02:06.811Z,63.46
2022-09-04T08:04:44.516Z,63.00
2022-09-04T08:06:56.973Z,63.21
2022-09-04T08:09:04.650Z,62.93
2022-09-04T08:11:15.267Z,62.75
2022-09-04T08:14:00.463Z,62.35
2022-09-04T08:16:19.038Z,62.08
2022-09-04T08:18:39.051Z,62.16
2022-09-04T08:21:02.532Z,62.25
2022-09-04T08:23:36.942Z,62.12
2022-09-04T08:26:12.254Z,61.87
2022-09-04T08:28:57.071Z,61.69
2022-09-04T08:31:26.468Z,61.74
2022-09-04T08:33:28.358Z,61.78
2022-09-04T08:35:52.684Z,61.67
2022-09-04T08:38:12.662Z,61.64
2022-09-04T08:40:26.104Z,61.55
2022-09-04T08:42:46.355Z,61.25
2022-09-04T08:45:15.431Z,61.31
2022-09-04T08:47:32.798Z,60.65
2022-09-04T08:50:04.624Z,60.38
2022-09-04T08:52:24.917Z,60.06
2022-09-04T08:54:59.142Z,59.99
2022-09-04T08:57:12.688Z,59.20
2022-09-04T08:59:17.195Z,59.04
2022-09-04T09:01:34.416Z,58.73
2022-09-04T09:04:06.357Z,58.49
2022-09-04T09:06:26.723Z,58.70
2022-09-04T09:08:56.425Z,58.87
2022-09-04T09:11:15.445Z,58.73
2022-09-04T09:13:45.387Z,58.27
2022-09-04T09:16:24.125Z,57.83
2022-09-04T09:18:40.508Z,57.87
2022-09-04T09:20:54.519Z,57.58
2022-09-04T09:23:18.383Z,57.71
2022-09-04T09:25:25.142Z,57.57
2022-09-04T09:27:29.859Z,57.51
2022-09-04T09:30:02.292Z,57.67
2022-09-04T09:32:41.880Z,57.47
2022-09-04T09:35:01.825Z,56.98
2022-09-04T09:37:12.527Z,56.44
2022-09-04T09:39:17.048Z,56.30
2022-09-04T09:41:24.486Z,55.73
2022-09-04T09:43:46.479Z,55.55
2022-09-04T09:46:12.917Z,55.55
2022-09-04T09:48:41.413Z,55.38
2022-09-04T09:50:52.032Z,55.29
2022-09-04T09:53:47.564Z,55.20
2022-09-04T09:56:14.088Z,54.72
2022-09-04T09:58:45.146Z,54.92
2022-09-04T10:01:08.276Z,54.96
2022-09-04T10:03:39.725Z,55.17
2022-09-04T10:06:20.184Z,55.15
2022-09-04T10:08:55.618Z,55.44
2022-09-04T10:10:57.297Z,55.63
2022-09-04T10:13:27.830Z,55.57
2022-09-04T10:16:04.632Z,55.40
2022-09-04T10:18:32.950Z,55.30
2022-09-04T10:21:13.158Z,54.97
2022-09-04T10:23:20.949Z,54.45
2022-09-04T10:25:55.087Z,54.66
2022-09-04T10:28:34.922Z,53.89
2022-09-04T10:31:13.990Z,53.31
2022-09-04T10:33:32.856Z,52.76
2022-09-04T10:35:44.051Z,52.89
2022-09-04T10:38:07.447Z,52.47
2022-09-04T10:40:43.750Z,52.19
2022-09-04T10:42:56.053Z,52.63
2022-09-04T10:45:00.501Z,51.95
2022-09-04T10:47:14.345Z,52.08
2022-09-04T10:49:34.449Z,52.44
2022-09-04T10:51:59.080Z,52.10
2022-09-04T10:54:30.444Z,52.04
2022-09-04T10:56:59.854Z,52.03
2022-09-04T10:59:21.384Z,52.05
2022-09-04T11:01:34.294Z,51.79
2022-09-04T11:03:58.783Z,51.53
2022-09-04T11:06:38.105Z,51.62
2022-09-04T11:09:00.847Z,51.77
2022-09-04T11:11:14.259Z,51.94
2022-09-04T11:13:31.135Z,51.61
2022-09-04T11:16:04.093Z,51.60
2022-09-04T11:18:26.318Z,51.70
2022-09-04T11:20:45.308Z,51.54
2022-09-04T11:23:24.771Z,51.04
2022-09-04T11:26:25.039Z,51.05
2022-09-04T11:29:03.855Z,50.74
2022-09-04T11:31:38.297Z,50.95
2022-09-04T11:33:48.953Z,50.94
2022-09-04T11:35:59.642Z,51.07
2022-09-04T11:38:10.658Z,50.91
2022-09-04T11:40:32.289Z,51.02
2022-09-04T11:42:56.178Z,50.66
2022-09-04T11:45:23.716Z,50.50
2022-09-04T11:48:03.254Z,50.71
2022-09-04T11:50:23.939Z,50.27
2022-09-04T11:52:28.364Z,50.17
2022-09-04T11:54:45.607Z,50.26
2022-09-04T11:57:12.442Z,50.10
2022-09-04T11:59:55.476Z,50.29
2022-09-04T12:02:18.918Z,50.25
2022-09-04T12:04:40.978Z,50.22
2022-09-04T12:07:17.125Z,50.39
2022-09-04T12:09:38.996Z,50.44
2022-09-04T12:12:11.163Z,50.47
2022-09-04T12:14:53.102Z,49.97
2022-09-04T12:17:25.763Z,49.69
2022-09-04T12:19:52.356Z,50.00
2022-09-04T12:22:15.443Z,50.28
2022-09-04T12:24:41.706Z,50.22
2022-09-04T12:26:59.709Z,50.16
2022-09-04T12:29:20.546Z,49.91
2022-09-04T12:31:32.528Z,49.55
2022-09-04T12:34:06.557Z,49.60
2022-09-04T12:36:38.559Z,49.42
2022-09-04T12:39:31.724Z,49.49
2022-09-04T12:42:01.909Z,49.51
2022-09-04T12:44:25.500Z,49.08
2022-09-04T12:47:00.757Z,49.24
2022-09-04T12:49:23.096Z,49.69
2022-09-04T12:51:44.050Z,49.60
2022-09-04T12:54:24.986Z,49.99
2022-09-04T12:56:37.206Z,50.54
2022-09-04T12:58:49.383Z,50.46
2022-09-04T13:01:08.587Z,50.27
2022-09-04T13:03:29.961Z,50.49
2022-09-04T13:05:52.814Z,50.56
2022-09-04T13:08:26.678Z,50.53
2022-09-04T13:10:41.387Z,50.84
2022-09-04T13:13:05.905Z,50.27
2022-09-04T13:15:19.504Z,50.45
2022-09-04T13:17:44.738Z,50.46
2022-09-04T13:20:13.147Z,50.10
2022-09-04T13:22:53.714Z,50.79
2022-09-04T13:25:27.372Z,50.44
2022-09-04T13:27:58.746Z,50.89
2022-09-04T13:30:30.296Z,52.36
2022-09-04T13:32:50.883Z,49.85
2022-09-04T13:34:58.927Z,49.67
2022-09-04T13:37:29.353Z,49.51
2022-09-04T13:40:09.529Z,49.26
2022-09-04T13:42:39.820Z,49.14
2022-09-04T13:45:02.874Z,49.00
2022-09-04T13:47:32.974Z,48.60
2022-09-04T13:49:44.413Z,48.05
2022-09-04T13:51:53.871Z,47.97
2022-09-04T13:54:05.212Z,47.86
2022-09-04T13:56:16.290Z,47.36
2022-09-04T13:58:27.488Z,47.14
2022-09-04T14:00:45.997Z,46.32
2022-09-04T14:02:55.940Z,46.57
2022-09-04T14:05:23.231Z,45.99
2022-09-04T14:07:29.826Z,45.54
2022-09-04T14:09:42.525Z,45.38
2022-09-04T14:12:14.391Z,45.43
2022-09-04T14:14:41.427Z,44.87
2022-09-04T14:16:44.576Z,44.45
2022-09-04T14:19:00.179Z,44.16
2022-09-04T14:21:17.023Z,43.88
2022-09-04T14:23:47.540Z,44.13
2022-09-04T14:26:04.094Z,43.25
2022-09-04T14:28:32.113Z,43.42
2022-09-04T14:30:50.853Z,42.94
2022-09-04T14:33:28.410Z,42.87
2022-09-04T14:35:46.986Z,42.44
2022-09-04T14:38:27.968Z,42.03
2022-09-04T14:41:25.901Z,41.26
2022-09-04T14:43:49.048Z,40.69
2022-09-04T14:45:51.939Z,40.75
2022-09-04T14:48:06.621Z,40.53
2022-09-04T14:50:23.371Z,40.07
2022-09-04T14:52:47.949Z,40.34
2022-09-04T14:55:02.612Z,40.13
2022-09-04T14:57:17.904Z,39.49
2022-09-04T14:59:31.526Z,39.63
2022-09-04T15:01:39.452Z,39.20
2022-09-04T15:03:49.237Z,39.62
2022-09-04T15:05:58.618Z,40.04
2022-09-04T15:08:03.934Z,39.61
2022-09-04T15:10:27.494Z,39.65
2022-09-04T15:12:39.273Z,39.54
2022-09-04T15:15:08.517Z,39.10
2022-09-04T15:17:26.230Z,39.39
2022-09-04T15:19:41.062Z,39.85
2022-09-04T15:21:57.064Z,39.52
2022-09-04T15:24:24.544Z,39.21
2022-09-04T15:27:06.947Z,39.45
2022-09-04T15:29:27.903Z,38.91
2022-09-04T15:31:41.940Z,39.09
2022-09-04T15:33:47.780Z,39.60
2022-09-04T15:36:21.091Z,39.93
2022-09-04T15:38:28.114Z,40.14
2022-09-04T15:41:05.693Z,40.47
2022-09-04T15:43:32.309Z,40.16
2022-09-04T15:45:52.084Z,40.04
2022-09-04T15:48:16.146Z,40.22
2022-09-04T15:50:22.897Z,39.47
2022-09-04T15:52:51.181Z,39.87
2022-09-04T15:55:02.574Z,39.92
2022-09-04T15:57:10.619Z,39.77
2022-09-04T15:59:27.832Z,40.15
2022-09-04T16:01:51.423Z,41.04
2022-09-04T16:04:23.523Z,41.55
2022-09-04T16:06:32.646Z,41.99
2022-09-04T16:08:50.373Z,42.34
2022-09-04T16:11:33.968Z,42.69
2022-09-04T16:13:45.905Z,42.98
2022-09-04T16:15:48.462Z,43.23
2022-09-04T16:17:55.878Z,43.48
2022-09-04T16:20:01.132Z,43.89
2022-09-04T16:22:02.910Z,44.20
2022-09-04T16:24:11.927Z,44.47
2022-09-04T16:26:31.282Z,44.88
2022-09-04T16:28:39.469Z,45.20
2022-09-04T16:30:58.279Z,45.44
2022-09-04T16:33:01.692Z,45.20
2022-09-04T16:35:15.232Z,45.17
2022-09-04T16:37:33.440Z,45.05
2022-09-04T16:39:56.299Z,45.08
2022-09-04T16:42:25.715Z,45.03
2022-09-04T16:44:38.824Z,45.01
2022-09-04T16:47:05.696Z,45.25
2022-09-04T16:49:20.371Z,45.79
2022-09-04T16:51:40.189Z,45.63
2022-09-04T16:54:04.322Z,45.84
2022-09-04T16:56:21.454Z,46.14
2022-09-04T16:58:37.644Z,46.09
2022-09-04T17:01:14.300Z,45.75
2022-09-04T17:03:25.410Z,45.93
2022-09-04T17:05:35.346Z,45.85
2022-09-04T17:07:44.208Z,45.86
2022-09-04T17:09:57.842Z,46.08
2022-09-04T17:12:24.282Z,46.17
2022-09-04T17:14:46.180Z,46.20
2022-09-04T17:17:00.542Z,46.07
2022-09-04T17:19:03.492Z,46.19
2022-09-04T17:28:52.149Z,46.51
2022-09-04T17:29:03.907Z,46.69
2022-09-04T17:29:17.545Z,46.14
2022-09-04T17:29:46.282Z,46.05
2022-09-04T17:31:48.805Z,46.32
2022-09-04T17:40:33.087Z,46.60
2022-09-04T17:40:40.546Z,46.73
2022-09-04T17:40:42.578Z,46.09
2022-09-04T17:42:30.168Z,45.82
2022-09-04T17:44:46.878Z,46.16
2022-09-04T17:47:04.728Z,46.18
2022-09-04T17:49:34.202Z,45.67
2022-09-04T17:51:36.867Z,45.72
2022-09-04T17:53:48.758Z,45.57
2022-09-04T17:55:56.510Z,45.72
2022-09-04T17:58:10.833Z,45.87
2022-09-04T18:00:26.079Z,45.70
2022-09-04T18:02:42.727Z,45.88
2022-09-04T18:05:29.273Z,46.15
2022-09-04T18:08:09.870Z,46.14
2022-09-04T18:10:37.496Z,45.97
2022-09-04T18:13:36.931Z,45.75
2022-09-04T18:15:43.215Z,46.05
2022-09-04T18:17:54.746Z,45.85
2022-09-04T18:20:07.951Z,45.95
2022-09-04T18:23:15.596Z,45.57
2022-09-04T18:25:56.022Z,45.79
2022-09-04T18:28:09.642Z,45.68
2022-09-04T18:37:05.561Z,45.81
2022-09-04T18:37:17.023Z,45.98
2022-09-04T18:37:20.788Z,46.71
2022-09-04T18:38:14.796Z,46.64
2022-09-04T18:41:53.018Z,46.97
2022-09-04T18:50:20.428Z,47.31
2022-09-04T18:50:34.465Z,47.34
2022-09-04T18:50:46.757Z,46.94
2022-09-04T18:51:01.949Z,47.71
2022-09-04T18:53:19.917Z,47.84
2022-09-04T18:55:57.881Z,47.90
2022-09-04T18:58:08.546Z,48.08
2022-09-04T19:00:11.502Z,48.26
2022-09-04T19:02:24.729Z,48.34
2022-09-04T19:05:14.527Z,48.58
2022-09-04T19:07:31.830Z,48.66
2022-09-04T19:10:06.705Z,48.77
2022-09-04T19:12:13.739Z,48.68
2022-09-04T19:14:24.248Z,48.66
2022-09-04T19:16:34.612Z,48.53
2022-09-04T19:18:43.851Z,48.40
2022-09-04T19:20:54.410Z,48.63
2022-09-04T19:23:15.137Z,48.45
2022-09-04T19:25:29.296Z,48.40
2022-09-04T19:27:38.297Z,48.49
2022-09-04T19:30:18.795Z,48.54
2022-09-04T19:32:45.724Z,48.82
2022-09-04T19:35:15.531Z,48.66
2022-09-04T19:39:04.828Z,48.75
2022-09-04T19:45:56.852Z,48.77
2022-09-04T19:46:16.781Z,48.72
2022-09-04T19:46:18.624Z,48.46
2022-09-04T19:48:07.793Z,48.25
2022-09-04T19:53:18.472Z,48.47
2022-09-04T19:53:23.204Z,48.81
2022-09-04T19:55:25.174Z,48.51
2022-09-04T19:57:42.549Z,48.32
2022-09-04T20:00:43.113Z,48.11
2022-09-04T20:03:13.507Z,48.30
2022-09-04T20:05:33.242Z,48.48
2022-09-04T20:07:45.042Z,48.31
2022-09-04T20:09:59.733Z,48.10
2022-09-04T20:12:12.058Z,48.01
2022-09-04T20:14:30.773Z,48.17
2022-09-04T20:16:48.255Z,47.91
2022-09-04T20:19:18.132Z,47.83
2022-09-04T20:21:59.939Z,47.88
2022-09-04T20:24:11.382Z,48.07
2022-09-04T20:26:28.822Z,47.70
2022-09-04T20:28:48.390Z,47.64
2022-09-04T20:31:35.202Z,47.67
2022-09-04T20:33:40.967Z,47.70
2022-09-04T20:35:52.798Z,47.45
2022-09-04T20:37:59.956Z,47.42
2022-09-04T20:40:19.281Z,47.37
2022-09-04T20:43:04.363Z,47.78
2022-09-04T20:47:05.018Z,47.80
2022-09-04T20:52:43.906Z,47.73
2022-09-04T20:52:58.059Z,47.80
2022-09-04T20:53:17.974Z,47.54
2022-09-04T20:55:52.454Z,47.22
2022-09-04T21:03:05.537Z,47.17
2022-09-04T21:03:22.836Z,46.88
2022-09-04T21:03:28.899Z,46.96
2022-09-04T21:06:10.678Z,46.81
2022-09-04T21:08:35.351Z,46.94
2022-09-04T21:10:50.181Z,47.07
2022-09-04T21:13:14.510Z,46.82
2022-09-04T21:15:48.374Z,46.22
2022-09-04T21:18:18.058Z,46.13
2022-09-04T21:20:46.681Z,45.74
2022-09-04T21:23:39.058Z,45.58
2022-09-04T21:26:22.527Z,45.68
2022-09-04T21:29:09.118Z,45.19
2022-09-04T21:31:49.954Z,44.82
2022-09-04T21:34:22.158Z,44.63
2022-09-04T21:36:38.214Z,44.82
2022-09-04T21:38:54.060Z,44.87
2022-09-04T21:41:29.406Z,45.23
2022-09-04T21:43:49.634Z,45.30
2022-09-04T21:46:04.621Z,45.13
2022-09-04T21:48:17.828Z,45.37
2022-09-04T21:50:44.805Z,45.03
2022-09-04T21:53:15.011Z,45.37
2022-09-04T22:00:54.813Z,45.40
2022-09-04T22:02:30.336Z,45.63
2022-09-04T22:02:38.829Z,45.91
2022-09-04T22:03:15.266Z,45.88
2022-09-04T22:05:21.765Z,45.72
2022-09-04T22:12:13.081Z,45.82
2022-09-04T22:13:28.797Z,46.08
2022-09-04T22:13:33.775Z,45.81
2022-09-04T22:15:07.431Z,46.07
2022-09-04T22:17:30.032Z,45.68
2022-09-04T22:19:52.914Z,45.59
2022-09-04T22:22:03.906Z,45.50
2022-09-04T22:24:41.510Z,45.57
2022-09-04T22:26:43.151Z,45.21
2022-09-04T22:29:08.269Z,45.61
2022-09-04T22:31:40.451Z,45.15
2022-09-04T22:34:15.369Z,45.77
2022-09-04T22:36:28.321Z,45.65
2022-09-04T22:38:32.683Z,45.66
2022-09-04T22:40:56.429Z,45.77
2022-09-04T22:43:11.656Z,45.85
2022-09-04T22:45:53.328Z,45.81
2022-09-04T22:48:40.921Z,46.05
2022-09-04T22:50:50.167Z,46.25
2022-09-04T22:53:22.745Z,46.35
2022-09-04T22:56:22.798Z,46.63
2022-09-04T22:58:38.300Z,46.60
2022-09-04T23:01:36.761Z,46.81
2022-09-04T23:04:23.970Z,46.92
2022-09-04T23:11:59.936Z,46.92
2022-09-04T23:13:50.644Z,46.46
2022-09-04T23:13:56.345Z,46.81
2022-09-04T23:14:55.110Z,46.63
2022-09-04T23:17:28.991Z,46.80
2022-09-04T23:23:05.126Z,46.62
2022-09-04T23:26:44.303Z,47.07
2022-09-04T23:26:50.900Z,47.04
2022-09-04T23:27:57.732Z,47.07
2022-09-04T23:30:12.660Z,47.35
2022-09-04T23:32:31.830Z,47.60
2022-09-04T23:35:13.915Z,47.67
2022-09-04T23:38:00.485Z,47.81
2022-09-04T23:40:29.075Z,48.03
2022-09-04T23:42:50.772Z,48.18
2022-09-04T23:45:29.953Z,48.34
2022-09-04T23:47:58.812Z,48.76
2022-09-04T23:50:19.182Z,48.44
2022-09-04T23:52:34.044Z,48.61
2022-09-04T23:55:03.456Z,49.02
2022-09-04T23:57:26.909Z,49.15
